sensor_id;sensor_type;location;lat;lon;timestamp;P1;durP1;ratioP1;P2;durP2;ratioP2
74532;SDS011;63012;51.096;-115.366;2023-06-24T00:00:21;6.40;;;2.00;;
74532;SDS011;63012;51.096;-115.366;2023-06-24T00:02:48;7.60;;;1.90;;
74532;SDS011;63012;51.096;-115.366;2023-06-24T00:05:17;5.80;;;1.80;;
74532;SDS011;63012;51.096;-115.366;2023-06-24T00:07:44;7.30;;;2.00;;
74532;SDS011;63012;51.096;-115.366;2023-06-24T00:10:13;5.90;;;1.40;;
74532;SDS011;63012;51.096;-115.366;2023-06-24T00:12:40;7.30;;;2.00;;
74532;SDS011;63012;51.096;-115.366;2023-06-24T00:15:08;7.10;;;1.70;;
74532;SDS011;63012;51.096;-115.366;2023-06-24T00:17:36;6.30;;;1.60;;
74532;SDS011;63012;51.096;-115.366;2023-06-24T00:20:04;7.50;;;2.20;;
74532;SDS011;63012;51.096;-115.366;2023-06-24T00:22:35;5.70;;;1.50;;
74532;SDS011;63012;51.096;-115.366;2023-06-24T00:25:02;7.00;;;1.90;;
74532;SDS011;63012;51.096;-115.366;2023-06-24T00:27:31;5.80;;;1.70;;
74532;SDS011;63012;51.096;-115.366;2023-06-24T00:29:58;9.50;;;1.50;;
74532;SDS011;63012;51.096;-115.366;2023-06-24T00:32:25;7.70;;;1.90;;
74532;SDS011;63012;51.096;-115.366;2023-06-24T00:34:52;7.90;;;1.80;;
74532;SDS011;63012;51.096;-115.366;2023-06-24T00:37:23;13.50;;;1.70;;
74532;SDS011;63012;51.096;-115.366;2023-06-24T00:39:51;5.70;;;1.70;;
74532;SDS011;63012;51.096;-115.366;2023-06-24T00:42:17;7.40;;;1.50;;
74532;SDS011;63012;51.096;-115.366;2023-06-24T00:44:44;6.50;;;1.70;;
74532;SDS011;63012;51.096;-115.366;2023-06-24T00:47:11;6.20;;;1.50;;
74532;SDS011;63012;51.096;-115.366;2023-06-24T00:49:39;5.60;;;1.80;;
74532;SDS011;63012;51.096;-115.366;2023-06-24T00:52:06;6.80;;;2.00;;
74532;SDS011;63012;51.096;-115.366;2023-06-24T00:54:36;5.50;;;1.70;;
74532;SDS011;63012;51.096;-115.366;2023-06-24T00:57:03;6.80;;;2.00;;
74532;SDS011;63012;51.096;-115.366;2023-06-24T00:59:30;6.60;;;1.70;;
74532;SDS011;63012;51.096;-115.366;2023-06-24T01:01:59;6.70;;;1.70;;
74532;SDS011;63012;51.096;-115.366;2023-06-24T01:04:33;6.80;;;2.10;;
74532;SDS011;63012;51.096;-115.366;2023-06-24T01:07:01;6.90;;;1.70;;
74532;SDS011;63012;51.096;-115.366;2023-06-24T01:09:29;7.60;;;1.70;;
74532;SDS011;63012;51.096;-115.366;2023-06-24T01:11:57;6.20;;;1.60;;
74532;SDS011;63012;51.096;-115.366;2023-06-24T01:14:24;6.30;;;2.30;;
74532;SDS011;63012;51.096;-115.366;2023-06-24T01:17:15;5.50;;;1.80;;
74532;SDS011;63012;51.096;-115.366;2023-06-24T01:20:19;5.90;;;1.50;;
74532;SDS011;63012;51.096;-115.366;2023-06-24T01:26:29;7.20;;;1.60;;
74532;SDS011;63012;51.096;-115.366;2023-06-24T01:32:49;8.20;;;2.10;;
74532;SDS011;63012;51.096;-115.366;2023-06-24T01:35:25;6.40;;;1.70;;
74532;SDS011;63012;51.096;-115.366;2023-06-24T01:38:01;7.30;;;1.60;;
74532;SDS011;63012;51.096;-115.366;2023-06-24T01:40:46;6.50;;;1.80;;
74532;SDS011;63012;51.096;-115.366;2023-06-24T01:43:15;6.40;;;1.70;;
74532;SDS011;63012;51.096;-115.366;2023-06-24T01:45:50;6.20;;;1.60;;
74532;SDS011;63012;51.096;-115.366;2023-06-24T01:48:25;6.80;;;1.50;;
74532;SDS011;63012;51.096;-115.366;2023-06-24T01:50:57;6.70;;;1.70;;
74532;SDS011;63012;51.096;-115.366;2023-06-24T01:53:34;7.40;;;1.90;;
74532;SDS011;63012;51.096;-115.366;2023-06-24T01:56:06;8.70;;;2.10;;
74532;SDS011;63012;51.096;-115.366;2023-06-24T01:58:37;6.50;;;1.70;;
74532;SDS011;63012;51.096;-115.366;2023-06-24T02:01:07;5.80;;;1.50;;
74532;SDS011;63012;51.096;-115.366;2023-06-24T02:03:35;5.50;;;1.60;;
74532;SDS011;63012;51.096;-115.366;2023-06-24T02:06:04;6.70;;;2.10;;
74532;SDS011;63012;51.096;-115.366;2023-06-24T02:08:37;7.10;;;2.00;;
74532;SDS011;63012;51.096;-115.366;2023-06-24T02:11:07;7.60;;;1.60;;
74532;SDS011;63012;51.096;-115.366;2023-06-24T02:13:35;7.30;;;2.00;;
74532;SDS011;63012;51.096;-115.366;2023-06-24T02:16:06;6.30;;;2.10;;
74532;SDS011;63012;51.096;-115.366;2023-06-24T02:18:38;6.80;;;2.00;;
74532;SDS011;63012;51.096;-115.366;2023-06-24T02:21:09;6.80;;;1.60;;
74532;SDS011;63012;51.096;-115.366;2023-06-24T02:23:38;7.40;;;1.60;;
74532;SDS011;63012;51.096;-115.366;2023-06-24T02:26:06;7.70;;;1.80;;
74532;SDS011;63012;51.096;-115.366;2023-06-24T02:28:36;6.20;;;1.60;;
74532;SDS011;63012;51.096;-115.366;2023-06-24T02:31:06;7.60;;;2.00;;
74532;SDS011;63012;51.096;-115.366;2023-06-24T02:33:35;6.60;;;1.90;;
74532;SDS011;63012;51.096;-115.366;2023-06-24T02:36:03;5.80;;;1.40;;
74532;SDS011;63012;51.096;-115.366;2023-06-24T02:38:30;5.50;;;1.50;;
74532;SDS011;63012;51.096;-115.366;2023-06-24T02:40:57;6.90;;;1.50;;
74532;SDS011;63012;51.096;-115.366;2023-06-24T02:43:26;18.90;;;2.00;;
74532;SDS011;63012;51.096;-115.366;2023-06-24T02:45:53;5.90;;;1.50;;
74532;SDS011;63012;51.096;-115.366;2023-06-24T02:48:21;5.80;;;1.50;;
74532;SDS011;63012;51.096;-115.366;2023-06-24T02:50:49;6.60;;;1.20;;
74532;SDS011;63012;51.096;-115.366;2023-06-24T02:53:16;6.00;;;1.70;;
74532;SDS011;63012;51.096;-115.366;2023-06-24T02:55:44;6.20;;;1.50;;
74532;SDS011;63012;51.096;-115.366;2023-06-24T02:58:13;7.60;;;1.90;;
74532;SDS011;63012;51.096;-115.366;2023-06-24T03:00:40;5.70;;;1.30;;
74532;SDS011;63012;51.096;-115.366;2023-06-24T03:03:08;6.80;;;2.10;;
74532;SDS011;63012;51.096;-115.366;2023-06-24T03:05:36;6.40;;;2.00;;
74532;SDS011;63012;51.096;-115.366;2023-06-24T03:08:03;8.20;;;2.00;;
74532;SDS011;63012;51.096;-115.366;2023-06-24T03:10:31;7.00;;;1.30;;
74532;SDS011;63012;51.096;-115.366;2023-06-24T03:12:58;6.20;;;1.70;;
74532;SDS011;63012;51.096;-115.366;2023-06-24T03:15:25;5.80;;;1.60;;
74532;SDS011;63012;51.096;-115.366;2023-06-24T03:17:52;6.30;;;1.40;;
74532;SDS011;63012;51.096;-115.366;2023-06-24T03:20:19;6.20;;;1.40;;
74532;SDS011;63012;51.096;-115.366;2023-06-24T03:22:46;5.70;;;1.50;;
74532;SDS011;63012;51.096;-115.366;2023-06-24T03:25:14;6.50;;;1.30;;
74532;SDS011;63012;51.096;-115.366;2023-06-24T03:27:41;5.60;;;1.60;;
74532;SDS011;63012;51.096;-115.366;2023-06-24T03:30:09;8.20;;;1.70;;
74532;SDS011;63012;51.096;-115.366;2023-06-24T03:32:40;5.50;;;1.50;;
74532;SDS011;63012;51.096;-115.366;2023-06-24T03:35:13;5.20;;;1.30;;
74532;SDS011;63012;51.096;-115.366;2023-06-24T03:37:40;6.10;;;1.40;;
74532;SDS011;63012;51.096;-115.366;2023-06-24T03:40:07;4.90;;;1.30;;
74532;SDS011;63012;51.096;-115.366;2023-06-24T03:42:35;5.20;;;1.50;;
74532;SDS011;63012;51.096;-115.366;2023-06-24T03:45:03;4.90;;;1.40;;
74532;SDS011;63012;51.096;-115.366;2023-06-24T03:47:30;6.10;;;1.70;;
74532;SDS011;63012;51.096;-115.366;2023-06-24T03:49:57;5.60;;;1.20;;
74532;SDS011;63012;51.096;-115.366;2023-06-24T03:52:25;5.90;;;1.60;;
74532;SDS011;63012;51.096;-115.366;2023-06-24T03:54:52;5.10;;;1.20;;
74532;SDS011;63012;51.096;-115.366;2023-06-24T03:57:19;7.20;;;1.50;;
74532;SDS011;63012;51.096;-115.366;2023-06-24T03:59:47;4.70;;;1.40;;
74532;SDS011;63012;51.096;-115.366;2023-06-24T04:02:13;6.70;;;1.10;;
74532;SDS011;63012;51.096;-115.366;2023-06-24T04:04:41;5.00;;;1.10;;
74532;SDS011;63012;51.096;-115.366;2023-06-24T04:07:08;6.00;;;1.50;;
74532;SDS011;63012;51.096;-115.366;2023-06-24T04:09:35;6.40;;;1.60;;
74532;SDS011;63012;51.096;-115.366;2023-06-24T04:12:02;7.60;;;1.50;;
74532;SDS011;63012;51.096;-115.366;2023-06-24T04:14:30;5.20;;;1.50;;
74532;SDS011;63012;51.096;-115.366;2023-06-24T04:16:58;6.20;;;1.60;;
74532;SDS011;63012;51.096;-115.366;2023-06-24T04:19:25;7.40;;;1.50;;
74532;SDS011;63012;51.096;-115.366;2023-06-24T04:21:51;4.50;;;1.40;;
74532;SDS011;63012;51.096;-115.366;2023-06-24T04:24:19;6.80;;;1.30;;
74532;SDS011;63012;51.096;-115.366;2023-06-24T04:26:46;7.00;;;1.40;;
74532;SDS011;63012;51.096;-115.366;2023-06-24T04:29:13;4.80;;;0.90;;
74532;SDS011;63012;51.096;-115.366;2023-06-24T04:31:40;6.00;;;1.50;;
74532;SDS011;63012;51.096;-115.366;2023-06-24T04:34:07;7.10;;;1.10;;
74532;SDS011;63012;51.096;-115.366;2023-06-24T04:36:34;5.20;;;1.00;;
74532;SDS011;63012;51.096;-115.366;2023-06-24T04:39:01;7.30;;;1.40;;
74532;SDS011;63012;51.096;-115.366;2023-06-24T04:41:28;4.40;;;1.30;;
74532;SDS011;63012;51.096;-115.366;2023-06-24T04:43:55;5.00;;;1.50;;
74532;SDS011;63012;51.096;-115.366;2023-06-24T04:46:23;6.40;;;1.60;;
74532;SDS011;63012;51.096;-115.366;2023-06-24T04:48:51;5.20;;;1.40;;
74532;SDS011;63012;51.096;-115.366;2023-06-24T04:51:18;7.00;;;1.80;;
74532;SDS011;63012;51.096;-115.366;2023-06-24T04:53:45;6.40;;;1.60;;
74532;SDS011;63012;51.096;-115.366;2023-06-24T04:56:12;6.70;;;1.50;;
74532;SDS011;63012;51.096;-115.366;2023-06-24T04:58:39;5.30;;;1.60;;
74532;SDS011;63012;51.096;-115.366;2023-06-24T05:01:06;7.20;;;2.20;;
74532;SDS011;63012;51.096;-115.366;2023-06-24T05:03:33;4.90;;;1.30;;
74532;SDS011;63012;51.096;-115.366;2023-06-24T05:06:01;5.60;;;1.30;;
74532;SDS011;63012;51.096;-115.366;2023-06-24T05:08:28;5.30;;;1.40;;
74532;SDS011;63012;51.096;-115.366;2023-06-24T05:10:55;7.10;;;1.50;;
74532;SDS011;63012;51.096;-115.366;2023-06-24T05:13:23;6.00;;;1.40;;
74532;SDS011;63012;51.096;-115.366;2023-06-24T05:15:50;7.60;;;1.70;;
74532;SDS011;63012;51.096;-115.366;2023-06-24T05:18:18;6.70;;;1.30;;
74532;SDS011;63012;51.096;-115.366;2023-06-24T05:20:44;6.00;;;1.40;;
74532;SDS011;63012;51.096;-115.366;2023-06-24T05:23:12;5.60;;;1.50;;
74532;SDS011;63012;51.096;-115.366;2023-06-24T05:25:39;6.10;;;1.50;;
74532;SDS011;63012;51.096;-115.366;2023-06-24T05:28:06;5.10;;;1.40;;
74532;SDS011;63012;51.096;-115.366;2023-06-24T05:30:33;5.70;;;1.50;;
74532;SDS011;63012;51.096;-115.366;2023-06-24T05:33:00;4.90;;;1.50;;
74532;SDS011;63012;51.096;-115.366;2023-06-24T05:35:27;4.80;;;1.10;;
74532;SDS011;63012;51.096;-115.366;2023-06-24T05:37:54;5.00;;;1.40;;
74532;SDS011;63012;51.096;-115.366;2023-06-24T05:40:21;6.80;;;1.40;;
74532;SDS011;63012;51.096;-115.366;2023-06-24T05:42:48;6.10;;;1.60;;
74532;SDS011;63012;51.096;-115.366;2023-06-24T05:45:14;7.90;;;1.70;;
74532;SDS011;63012;51.096;-115.366;2023-06-24T05:47:41;6.70;;;1.90;;
74532;SDS011;63012;51.096;-115.366;2023-06-24T05:50:09;7.80;;;1.90;;
74532;SDS011;63012;51.096;-115.366;2023-06-24T05:52:36;6.10;;;1.60;;
74532;SDS011;63012;51.096;-115.366;2023-06-24T05:55:03;6.30;;;1.70;;
74532;SDS011;63012;51.096;-115.366;2023-06-24T05:57:30;6.20;;;1.70;;
74532;SDS011;63012;51.096;-115.366;2023-06-24T05:59:58;8.40;;;1.60;;
74532;SDS011;63012;51.096;-115.366;2023-06-24T06:02:24;7.00;;;1.30;;
74532;SDS011;63012;51.096;-115.366;2023-06-24T06:04:52;6.50;;;1.50;;
74532;SDS011;63012;51.096;-115.366;2023-06-24T06:07:19;6.70;;;1.60;;
74532;SDS011;63012;51.096;-115.366;2023-06-24T06:09:46;5.00;;;1.50;;
74532;SDS011;63012;51.096;-115.366;2023-06-24T06:12:13;5.20;;;1.50;;
74532;SDS011;63012;51.096;-115.366;2023-06-24T06:14:40;6.10;;;1.90;;
74532;SDS011;63012;51.096;-115.366;2023-06-24T06:17:08;6.60;;;1.60;;
74532;SDS011;63012;51.096;-115.366;2023-06-24T06:19:35;6.00;;;1.90;;
74532;SDS011;63012;51.096;-115.366;2023-06-24T06:22:02;7.50;;;1.90;;
74532;SDS011;63012;51.096;-115.366;2023-06-24T06:24:29;6.60;;;2.00;;
74532;SDS011;63012;51.096;-115.366;2023-06-24T06:26:58;7.60;;;1.60;;
74532;SDS011;63012;51.096;-115.366;2023-06-24T06:29:25;7.10;;;1.70;;
74532;SDS011;63012;51.096;-115.366;2023-06-24T06:31:52;6.20;;;1.50;;
74532;SDS011;63012;51.096;-115.366;2023-06-24T06:34:21;5.30;;;1.70;;
74532;SDS011;63012;51.096;-115.366;2023-06-24T06:36:48;6.70;;;1.40;;
74532;SDS011;63012;51.096;-115.366;2023-06-24T06:39:15;5.40;;;1.50;;
74532;SDS011;63012;51.096;-115.366;2023-06-24T06:41:42;5.70;;;1.20;;
74532;SDS011;63012;51.096;-115.366;2023-06-24T06:44:09;6.70;;;1.80;;
74532;SDS011;63012;51.096;-115.366;2023-06-24T06:46:36;5.20;;;1.60;;
74532;SDS011;63012;51.096;-115.366;2023-06-24T06:49:03;5.60;;;1.50;;
74532;SDS011;63012;51.096;-115.366;2023-06-24T06:51:30;5.70;;;1.40;;
74532;SDS011;63012;51.096;-115.366;2023-06-24T06:53:57;6.80;;;1.80;;
74532;SDS011;63012;51.096;-115.366;2023-06-24T06:56:25;5.50;;;1.80;;
74532;SDS011;63012;51.096;-115.366;2023-06-24T06:58:52;5.80;;;1.70;;
74532;SDS011;63012;51.096;-115.366;2023-06-24T07:01:19;5.40;;;1.70;;
74532;SDS011;63012;51.096;-115.366;2023-06-24T07:03:49;5.40;;;1.80;;
74532;SDS011;63012;51.096;-115.366;2023-06-24T07:06:18;9.60;;;1.70;;
74532;SDS011;63012;51.096;-115.366;2023-06-24T07:08:46;14.40;;;1.90;;
74532;SDS011;63012;51.096;-115.366;2023-06-24T07:11:13;8.30;;;1.90;;
74532;SDS011;63012;51.096;-115.366;2023-06-24T07:13:40;8.00;;;2.10;;
74532;SDS011;63012;51.096;-115.366;2023-06-24T07:16:07;5.30;;;1.80;;
74532;SDS011;63012;51.096;-115.366;2023-06-24T07:18:34;6.00;;;1.80;;
74532;SDS011;63012;51.096;-115.366;2023-06-24T07:21:01;5.20;;;1.60;;
74532;SDS011;63012;51.096;-115.366;2023-06-24T07:23:28;6.10;;;1.90;;
74532;SDS011;63012;51.096;-115.366;2023-06-24T07:25:55;7.00;;;2.60;;
74532;SDS011;63012;51.096;-115.366;2023-06-24T07:28:22;5.60;;;1.90;;
74532;SDS011;63012;51.096;-115.366;2023-06-24T07:30:49;6.10;;;1.70;;
74532;SDS011;63012;51.096;-115.366;2023-06-24T07:33:16;6.10;;;2.00;;
74532;SDS011;63012;51.096;-115.366;2023-06-24T07:35:43;6.10;;;2.30;;
74532;SDS011;63012;51.096;-115.366;2023-06-24T07:38:10;6.50;;;2.70;;
74532;SDS011;63012;51.096;-115.366;2023-06-24T07:40:38;5.80;;;2.00;;
74532;SDS011;63012;51.096;-115.366;2023-06-24T07:43:05;6.50;;;2.00;;
74532;SDS011;63012;51.096;-115.366;2023-06-24T07:45:32;5.20;;;1.70;;
74532;SDS011;63012;51.096;-115.366;2023-06-24T07:47:59;6.40;;;2.20;;
74532;SDS011;63012;51.096;-115.366;2023-06-24T07:50:26;5.60;;;2.20;;
74532;SDS011;63012;51.096;-115.366;2023-06-24T07:52:53;7.90;;;2.80;;
74532;SDS011;63012;51.096;-115.366;2023-06-24T07:55:20;7.50;;;2.00;;
74532;SDS011;63012;51.096;-115.366;2023-06-24T07:57:47;7.10;;;2.30;;
74532;SDS011;63012;51.096;-115.366;2023-06-24T08:00:15;7.00;;;2.90;;
74532;SDS011;63012;51.096;-115.366;2023-06-24T08:02:43;7.40;;;3.10;;
74532;SDS011;63012;51.096;-115.366;2023-06-24T08:05:10;6.90;;;2.50;;
74532;SDS011;63012;51.096;-115.366;2023-06-24T08:07:37;7.50;;;2.50;;
74532;SDS011;63012;51.096;-115.366;2023-06-24T08:10:05;6.30;;;2.40;;
74532;SDS011;63012;51.096;-115.366;2023-06-24T08:12:32;6.00;;;2.30;;
74532;SDS011;63012;51.096;-115.366;2023-06-24T08:15:00;6.10;;;2.00;;
74532;SDS011;63012;51.096;-115.366;2023-06-24T08:17:27;5.60;;;2.20;;
74532;SDS011;63012;51.096;-115.366;2023-06-24T08:19:54;7.90;;;1.70;;
74532;SDS011;63012;51.096;-115.366;2023-06-24T08:22:21;6.00;;;2.00;;
74532;SDS011;63012;51.096;-115.366;2023-06-24T08:24:48;6.10;;;1.90;;
74532;SDS011;63012;51.096;-115.366;2023-06-24T08:27:16;6.50;;;1.90;;
74532;SDS011;63012;51.096;-115.366;2023-06-24T08:29:42;5.40;;;1.30;;
74532;SDS011;63012;51.096;-115.366;2023-06-24T08:32:09;6.10;;;2.10;;
74532;SDS011;63012;51.096;-115.366;2023-06-24T08:34:36;5.20;;;1.70;;
74532;SDS011;63012;51.096;-115.366;2023-06-24T08:37:04;6.10;;;1.50;;
74532;SDS011;63012;51.096;-115.366;2023-06-24T08:39:31;5.30;;;1.70;;
74532;SDS011;63012;51.096;-115.366;2023-06-24T08:41:58;6.50;;;2.00;;
74532;SDS011;63012;51.096;-115.366;2023-06-24T08:44:25;5.40;;;1.60;;
74532;SDS011;63012;51.096;-115.366;2023-06-24T08:46:52;5.30;;;2.00;;
74532;SDS011;63012;51.096;-115.366;2023-06-24T08:52:13;5.40;;;1.80;;
74532;SDS011;63012;51.096;-115.366;2023-06-24T08:54:43;4.60;;;1.40;;
74532;SDS011;63012;51.096;-115.366;2023-06-24T08:57:13;5.10;;;1.60;;
74532;SDS011;63012;51.096;-115.366;2023-06-24T08:59:42;5.10;;;1.50;;
74532;SDS011;63012;51.096;-115.366;2023-06-24T09:02:09;4.90;;;1.30;;
74532;SDS011;63012;51.096;-115.366;2023-06-24T09:04:37;4.70;;;1.20;;
74532;SDS011;63012;51.096;-115.366;2023-06-24T09:07:04;5.00;;;1.50;;
74532;SDS011;63012;51.096;-115.366;2023-06-24T09:09:31;5.50;;;1.40;;
74532;SDS011;63012;51.096;-115.366;2023-06-24T09:12:00;5.40;;;1.30;;
74532;SDS011;63012;51.096;-115.366;2023-06-24T09:14:29;5.30;;;1.50;;
74532;SDS011;63012;51.096;-115.366;2023-06-24T09:17:00;5.10;;;1.50;;
74532;SDS011;63012;51.096;-115.366;2023-06-24T09:19:29;5.00;;;1.30;;
74532;SDS011;63012;51.096;-115.366;2023-06-24T09:22:06;5.20;;;1.40;;
74532;SDS011;63012;51.096;-115.366;2023-06-24T09:24:34;4.60;;;1.20;;
74532;SDS011;63012;51.096;-115.366;2023-06-24T09:27:05;4.60;;;1.60;;
74532;SDS011;63012;51.096;-115.366;2023-06-24T09:29:33;4.90;;;1.50;;
74532;SDS011;63012;51.096;-115.366;2023-06-24T09:32:05;6.00;;;1.80;;
74532;SDS011;63012;51.096;-115.366;2023-06-24T09:34:33;6.00;;;1.80;;
74532;SDS011;63012;51.096;-115.366;2023-06-24T09:37:01;5.90;;;1.70;;
74532;SDS011;63012;51.096;-115.366;2023-06-24T09:39:30;6.10;;;1.30;;
74532;SDS011;63012;51.096;-115.366;2023-06-24T09:42:06;5.50;;;1.80;;
74532;SDS011;63012;51.096;-115.366;2023-06-24T09:44:34;4.20;;;1.20;;
74532;SDS011;63012;51.096;-115.366;2023-06-24T09:47:01;5.40;;;1.30;;
74532;SDS011;63012;51.096;-115.366;2023-06-24T09:49:29;5.30;;;1.40;;
74532;SDS011;63012;51.096;-115.366;2023-06-24T09:51:59;5.20;;;1.70;;
74532;SDS011;63012;51.096;-115.366;2023-06-24T09:54:29;4.50;;;1.50;;
74532;SDS011;63012;51.096;-115.366;2023-06-24T09:57:02;5.90;;;1.80;;
74532;SDS011;63012;51.096;-115.366;2023-06-24T09:59:30;4.80;;;1.40;;
74532;SDS011;63012;51.096;-115.366;2023-06-24T10:02:02;5.90;;;1.30;;
74532;SDS011;63012;51.096;-115.366;2023-06-24T10:04:31;5.90;;;1.70;;
74532;SDS011;63012;51.096;-115.366;2023-06-24T10:06:59;5.20;;;1.50;;
74532;SDS011;63012;51.096;-115.366;2023-06-24T10:09:28;5.30;;;1.50;;
74532;SDS011;63012;51.096;-115.366;2023-06-24T10:11:55;4.90;;;1.80;;
74532;SDS011;63012;51.096;-115.366;2023-06-24T10:14:23;4.70;;;1.50;;
74532;SDS011;63012;51.096;-115.366;2023-06-24T10:16:50;5.00;;;1.70;;
74532;SDS011;63012;51.096;-115.366;2023-06-24T10:19:21;4.80;;;1.40;;
74532;SDS011;63012;51.096;-115.366;2023-06-24T10:21:52;6.10;;;2.00;;
74532;SDS011;63012;51.096;-115.366;2023-06-24T10:24:50;5.20;;;1.30;;
74532;SDS011;63012;51.096;-115.366;2023-06-24T10:27:20;5.10;;;1.50;;
74532;SDS011;63012;51.096;-115.366;2023-06-24T10:29:53;5.00;;;1.70;;
74532;SDS011;63012;51.096;-115.366;2023-06-24T10:32:24;6.10;;;1.90;;
74532;SDS011;63012;51.096;-115.366;2023-06-24T10:34:57;5.20;;;1.90;;
74532;SDS011;63012;51.096;-115.366;2023-06-24T10:37:26;6.00;;;2.00;;
74532;SDS011;63012;51.096;-115.366;2023-06-24T10:39:57;5.70;;;2.00;;
74532;SDS011;63012;51.096;-115.366;2023-06-24T10:42:41;5.40;;;1.70;;
74532;SDS011;63012;51.096;-115.366;2023-06-24T10:47:37;5.30;;;1.60;;
74532;SDS011;63012;51.096;-115.366;2023-06-24T10:50:13;6.00;;;2.00;;
74532;SDS011;63012;51.096;-115.366;2023-06-24T10:52:47;4.70;;;1.40;;
74532;SDS011;63012;51.096;-115.366;2023-06-24T10:55:16;6.00;;;1.60;;
74532;SDS011;63012;51.096;-115.366;2023-06-24T10:57:44;4.90;;;1.80;;
74532;SDS011;63012;51.096;-115.366;2023-06-24T11:00:12;5.20;;;1.60;;
74532;SDS011;63012;51.096;-115.366;2023-06-24T11:02:41;5.10;;;1.40;;
74532;SDS011;63012;51.096;-115.366;2023-06-24T11:05:09;5.30;;;1.40;;
74532;SDS011;63012;51.096;-115.366;2023-06-24T11:07:38;5.40;;;1.70;;
74532;SDS011;63012;51.096;-115.366;2023-06-24T11:10:07;4.80;;;1.70;;
74532;SDS011;63012;51.096;-115.366;2023-06-24T11:12:38;5.20;;;2.00;;
74532;SDS011;63012;51.096;-115.366;2023-06-24T11:15:08;6.40;;;1.60;;
74532;SDS011;63012;51.096;-115.366;2023-06-24T11:17:37;5.10;;;1.60;;
74532;SDS011;63012;51.096;-115.366;2023-06-24T11:20:10;5.50;;;1.80;;
74532;SDS011;63012;51.096;-115.366;2023-06-24T11:22:40;5.40;;;2.10;;
74532;SDS011;63012;51.096;-115.366;2023-06-24T11:25:15;6.20;;;1.50;;
74532;SDS011;63012;51.096;-115.366;2023-06-24T11:27:45;6.00;;;2.00;;
74532;SDS011;63012;51.096;-115.366;2023-06-24T11:30:13;5.50;;;1.50;;
74532;SDS011;63012;51.096;-115.366;2023-06-24T11:32:44;5.40;;;1.80;;
74532;SDS011;63012;51.096;-115.366;2023-06-24T11:35:13;5.10;;;1.70;;
74532;SDS011;63012;51.096;-115.366;2023-06-24T11:37:45;5.70;;;1.90;;
74532;SDS011;63012;51.096;-115.366;2023-06-24T11:40:15;5.20;;;1.50;;
74532;SDS011;63012;51.096;-115.366;2023-06-24T11:42:45;5.00;;;1.70;;
74532;SDS011;63012;51.096;-115.366;2023-06-24T11:45:14;5.40;;;2.00;;
74532;SDS011;63012;51.096;-115.366;2023-06-24T11:47:47;8.00;;;2.20;;
74532;SDS011;63012;51.096;-115.366;2023-06-24T11:50:26;4.70;;;1.50;;
74532;SDS011;63012;51.096;-115.366;2023-06-24T11:52:54;4.80;;;1.80;;
74532;SDS011;63012;51.096;-115.366;2023-06-24T11:55:25;5.20;;;1.80;;
74532;SDS011;63012;51.096;-115.366;2023-06-24T12:00:48;5.10;;;1.90;;
74532;SDS011;63012;51.096;-115.366;2023-06-24T12:03:22;5.60;;;1.70;;
74532;SDS011;63012;51.096;-115.366;2023-06-24T12:05:50;5.70;;;1.70;;
74532;SDS011;63012;51.096;-115.366;2023-06-24T12:08:18;5.70;;;1.60;;
74532;SDS011;63012;51.096;-115.366;2023-06-24T12:10:45;7.00;;;2.10;;
74532;SDS011;63012;51.096;-115.366;2023-06-24T12:13:12;5.90;;;1.90;;
74532;SDS011;63012;51.096;-115.366;2023-06-24T12:15:40;6.10;;;1.80;;
74532;SDS011;63012;51.096;-115.366;2023-06-24T12:18:07;5.40;;;1.90;;
74532;SDS011;63012;51.096;-115.366;2023-06-24T12:20:34;5.60;;;1.70;;
74532;SDS011;63012;51.096;-115.366;2023-06-24T12:23:03;5.60;;;1.80;;
74532;SDS011;63012;51.096;-115.366;2023-06-24T12:25:30;6.90;;;2.10;;
74532;SDS011;63012;51.096;-115.366;2023-06-24T12:27:57;5.50;;;2.00;;
74532;SDS011;63012;51.096;-115.366;2023-06-24T12:30:28;5.40;;;1.90;;
74532;SDS011;63012;51.096;-115.366;2023-06-24T12:32:55;5.80;;;1.80;;
74532;SDS011;63012;51.096;-115.366;2023-06-24T12:35:22;5.50;;;2.00;;
74532;SDS011;63012;51.096;-115.366;2023-06-24T12:37:52;5.70;;;2.00;;
74532;SDS011;63012;51.096;-115.366;2023-06-24T12:40:19;5.80;;;1.60;;
74532;SDS011;63012;51.096;-115.366;2023-06-24T12:42:46;5.50;;;2.10;;
74532;SDS011;63012;51.096;-115.366;2023-06-24T12:45:13;6.40;;;2.10;;
74532;SDS011;63012;51.096;-115.366;2023-06-24T12:47:40;6.60;;;2.40;;
74532;SDS011;63012;51.096;-115.366;2023-06-24T12:50:08;5.50;;;2.20;;
74532;SDS011;63012;51.096;-115.366;2023-06-24T12:52:35;5.70;;;2.20;;
74532;SDS011;63012;51.096;-115.366;2023-06-24T12:55:03;6.00;;;2.00;;
74532;SDS011;63012;51.096;-115.366;2023-06-24T12:57:31;6.10;;;1.80;;
74532;SDS011;63012;51.096;-115.366;2023-06-24T12:59:58;6.20;;;2.50;;
74532;SDS011;63012;51.096;-115.366;2023-06-24T13:02:25;5.80;;;2.10;;
74532;SDS011;63012;51.096;-115.366;2023-06-24T13:04:51;5.80;;;2.00;;
74532;SDS011;63012;51.096;-115.366;2023-06-24T13:07:19;6.60;;;1.90;;
74532;SDS011;63012;51.096;-115.366;2023-06-24T13:09:46;5.90;;;2.40;;
74532;SDS011;63012;51.096;-115.366;2023-06-24T13:12:13;6.60;;;2.10;;
74532;SDS011;63012;51.096;-115.366;2023-06-24T13:14:40;6.30;;;2.20;;
74532;SDS011;63012;51.096;-115.366;2023-06-24T13:17:07;6.00;;;2.20;;
74532;SDS011;63012;51.096;-115.366;2023-06-24T13:19:34;6.40;;;2.20;;
74532;SDS011;63012;51.096;-115.366;2023-06-24T13:22:01;5.70;;;2.20;;
74532;SDS011;63012;51.096;-115.366;2023-06-24T13:24:28;6.30;;;2.30;;
74532;SDS011;63012;51.096;-115.366;2023-06-24T13:26:55;6.20;;;2.50;;
74532;SDS011;63012;51.096;-115.366;2023-06-24T13:29:23;6.80;;;2.10;;
74532;SDS011;63012;51.096;-115.366;2023-06-24T13:31:50;6.60;;;2.40;;
74532;SDS011;63012;51.096;-115.366;2023-06-24T13:34:17;5.30;;;1.80;;
74532;SDS011;63012;51.096;-115.366;2023-06-24T13:36:45;6.20;;;2.00;;
74532;SDS011;63012;51.096;-115.366;2023-06-24T13:39:14;6.10;;;2.60;;
74532;SDS011;63012;51.096;-115.366;2023-06-24T13:41:44;6.20;;;2.30;;
74532;SDS011;63012;51.096;-115.366;2023-06-24T13:44:12;5.90;;;2.00;;
74532;SDS011;63012;51.096;-115.366;2023-06-24T13:46:39;6.30;;;2.60;;
74532;SDS011;63012;51.096;-115.366;2023-06-24T13:49:06;6.10;;;2.20;;
74532;SDS011;63012;51.096;-115.366;2023-06-24T13:51:33;6.80;;;2.70;;
74532;SDS011;63012;51.096;-115.366;2023-06-24T13:54:00;5.70;;;2.00;;
74532;SDS011;63012;51.096;-115.366;2023-06-24T13:56:27;7.10;;;2.40;;
74532;SDS011;63012;51.096;-115.366;2023-06-24T13:58:55;6.30;;;2.70;;
74532;SDS011;63012;51.096;-115.366;2023-06-24T14:01:22;6.40;;;2.30;;
74532;SDS011;63012;51.096;-115.366;2023-06-24T14:03:50;6.40;;;2.70;;
74532;SDS011;63012;51.096;-115.366;2023-06-24T14:06:20;6.30;;;2.50;;
74532;SDS011;63012;51.096;-115.366;2023-06-24T14:08:48;5.90;;;2.10;;
74532;SDS011;63012;51.096;-115.366;2023-06-24T14:11:17;6.00;;;2.50;;
74532;SDS011;63012;51.096;-115.366;2023-06-24T14:13:44;7.00;;;3.00;;
74532;SDS011;63012;51.096;-115.366;2023-06-24T14:16:12;7.00;;;2.50;;
74532;SDS011;63012;51.096;-115.366;2023-06-24T14:18:39;5.70;;;1.80;;
74532;SDS011;63012;51.096;-115.366;2023-06-24T14:21:07;6.90;;;2.60;;
74532;SDS011;63012;51.096;-115.366;2023-06-24T14:23:34;5.70;;;2.00;;
74532;SDS011;63012;51.096;-115.366;2023-06-24T14:26:02;7.50;;;2.40;;
74532;SDS011;63012;51.096;-115.366;2023-06-24T14:28:29;6.80;;;2.50;;
74532;SDS011;63012;51.096;-115.366;2023-06-24T14:30:57;6.30;;;2.50;;